sensor_id;sensor_type;location;lat;lon;timestamp;P1;durP1;ratioP1;P2;durP2;ratioP2
79013;SDS011;68419;44.714;37.756;2023-03-23T00:00:24;3.30;;;2.78;;
79013;SDS011;68419;44.714;37.756;2023-03-23T00:01:25;6.30;;;3.25;;
79013;SDS011;68419;44.714;37.756;2023-03-23T00:02:31;3.47;;;2.83;;
79013;SDS011;68419;44.714;37.756;2023-03-23T00:03:36;3.05;;;2.50;;
79013;SDS011;68419;44.714;37.756;2023-03-23T00:04:38;3.40;;;2.60;;
79013;SDS011;68419;44.714;37.756;2023-03-23T00:05:40;4.13;;;2.63;;
79013;SDS011;68419;44.714;37.756;2023-03-23T00:06:50;3.05;;;2.60;;
79013;SDS011;68419;44.714;37.756;2023-03-23T00:07:52;3.10;;;2.50;;
79013;SDS011;68419;44.714;37.756;2023-03-23T00:08:56;3.45;;;2.80;;
79013;SDS011;68419;44.714;37.756;2023-03-23T00:10:00;4.97;;;2.78;;
79013;SDS011;68419;44.714;37.756;2023-03-23T00:11:06;3.17;;;2.72;;
79013;SDS011;68419;44.714;37.756;2023-03-23T00:12:08;4.15;;;2.80;;
79013;SDS011;68419;44.714;37.756;2023-03-23T00:13:09;4.38;;;2.80;;
79013;SDS011;68419;44.714;37.756;2023-03-23T00:14:12;4.28;;;2.60;;
79013;SDS011;68419;44.714;37.756;2023-03-23T00:15:17;4.43;;;2.70;;
79013;SDS011;68419;44.714;37.756;2023-03-23T00:16:20;3.95;;;2.63;;
79013;SDS011;68419;44.714;37.756;2023-03-23T00:17:31;4.70;;;2.90;;
79013;SDS011;68419;44.714;37.756;2023-03-23T00:18:36;3.55;;;2.83;;
79013;SDS011;68419;44.714;37.756;2023-03-23T00:19:38;4.32;;;2.70;;
79013;SDS011;68419;44.714;37.756;2023-03-23T00:20:49;3.97;;;2.60;;
79013;SDS011;68419;44.714;37.756;2023-03-23T00:21:52;4.80;;;2.78;;
79013;SDS011;68419;44.714;37.756;2023-03-23T00:22:54;3.92;;;2.90;;
79013;SDS011;68419;44.714;37.756;2023-03-23T00:24:02;3.15;;;2.58;;
79013;SDS011;68419;44.714;37.756;2023-03-23T00:25:05;4.53;;;2.83;;
79013;SDS011;68419;44.714;37.756;2023-03-23T00:26:09;3.35;;;2.60;;
79013;SDS011;68419;44.714;37.756;2023-03-23T00:27:10;4.00;;;3.10;;
79013;SDS011;68419;44.714;37.756;2023-03-23T00:28:16;3.40;;;2.60;;
79013;SDS011;68419;44.714;37.756;2023-03-23T00:29:20;3.28;;;2.42;;
79013;SDS011;68419;44.714;37.756;2023-03-23T00:30:25;4.55;;;2.70;;
79013;SDS011;68419;44.714;37.756;2023-03-23T00:31:27;4.85;;;2.88;;
79013;SDS011;68419;44.714;37.756;2023-03-23T00:32:33;3.95;;;2.83;;
79013;SDS011;68419;44.714;37.756;2023-03-23T00:33:37;2.88;;;2.42;;
79013;SDS011;68419;44.714;37.756;2023-03-23T00:34:39;3.35;;;2.47;;
79013;SDS011;68419;44.714;37.756;2023-03-23T00:35:44;4.15;;;2.83;;
79013;SDS011;68419;44.714;37.756;2023-03-23T00:36:46;4.43;;;2.92;;
79013;SDS011;68419;44.714;37.756;2023-03-23T00:37:49;4.13;;;2.80;;
79013;SDS011;68419;44.714;37.756;2023-03-23T00:38:50;5.22;;;2.72;;
79013;SDS011;68419;44.714;37.756;2023-03-23T00:39:54;3.28;;;2.55;;
79013;SDS011;68419;44.714;37.756;2023-03-23T00:40:58;4.72;;;2.80;;
79013;SDS011;68419;44.714;37.756;2023-03-23T00:42:03;3.35;;;3.05;;
79013;SDS011;68419;44.714;37.756;2023-03-23T00:43:05;3.90;;;2.67;;
79013;SDS011;68419;44.714;37.756;2023-03-23T00:44:06;4.57;;;3.15;;
79013;SDS011;68419;44.714;37.756;2023-03-23T00:45:09;4.30;;;3.10;;
79013;SDS011;68419;44.714;37.756;2023-03-23T00:46:11;3.80;;;2.95;;
79013;SDS011;68419;44.714;37.756;2023-03-23T00:47:13;3.33;;;3.00;;
79013;SDS011;68419;44.714;37.756;2023-03-23T00:48:16;3.75;;;2.83;;
79013;SDS011;68419;44.714;37.756;2023-03-23T00:49:18;3.55;;;3.08;;
79013;SDS011;68419;44.714;37.756;2023-03-23T00:50:25;3.75;;;2.78;;
79013;SDS011;68419;44.714;37.756;2023-03-23T00:51:27;3.55;;;2.95;;
79013;SDS011;68419;44.714;37.756;2023-03-23T00:52:29;3.10;;;2.40;;
79013;SDS011;68419;44.714;37.756;2023-03-23T00:53:31;3.33;;;2.70;;
79013;SDS011;68419;44.714;37.756;2023-03-23T00:54:33;3.42;;;2.58;;
79013;SDS011;68419;44.714;37.756;2023-03-23T00:55:42;3.38;;;2.50;;
79013;SDS011;68419;44.714;37.756;2023-03-23T00:56:48;3.28;;;2.75;;
79013;SDS011;68419;44.714;37.756;2023-03-23T00:57:50;3.75;;;2.80;;
79013;SDS011;68419;44.714;37.756;2023-03-23T00:58:52;4.30;;;2.92;;
79013;SDS011;68419;44.714;37.756;2023-03-23T00:59:53;3.65;;;2.88;;
79013;SDS011;68419;44.714;37.756;2023-03-23T01:00:55;5.60;;;3.53;;
79013;SDS011;68419;44.714;37.756;2023-03-23T01:01:57;4.68;;;2.78;;
79013;SDS011;68419;44.714;37.756;2023-03-23T01:02:59;3.88;;;2.83;;
79013;SDS011;68419;44.714;37.756;2023-03-23T01:04:01;4.97;;;2.70;;
79013;SDS011;68419;44.714;37.756;2023-03-23T01:05:05;5.32;;;2.53;;
79013;SDS011;68419;44.714;37.756;2023-03-23T01:06:08;4.18;;;2.80;;
79013;SDS011;68419;44.714;37.756;2023-03-23T01:07:26;3.90;;;3.10;;
79013;SDS011;68419;44.714;37.756;2023-03-23T01:08:39;3.78;;;2.50;;
79013;SDS011;68419;44.714;37.756;2023-03-23T01:09:48;4.07;;;3.00;;
79013;SDS011;68419;44.714;37.756;2023-03-23T01:10:50;3.90;;;2.72;;
79013;SDS011;68419;44.714;37.756;2023-03-23T01:11:52;4.40;;;2.88;;
79013;SDS011;68419;44.714;37.756;2023-03-23T01:12:56;3.50;;;2.83;;
79013;SDS011;68419;44.714;37.756;2023-03-23T01:13:58;3.60;;;3.03;;
79013;SDS011;68419;44.714;37.756;2023-03-23T01:15:00;4.25;;;3.20;;
79013;SDS011;68419;44.714;37.756;2023-03-23T01:16:02;3.70;;;2.40;;
79013;SDS011;68419;44.714;37.756;2023-03-23T01:17:04;4.57;;;2.72;;
79013;SDS011;68419;44.714;37.756;2023-03-23T01:18:06;4.60;;;2.85;;
79013;SDS011;68419;44.714;37.756;2023-03-23T01:19:07;3.78;;;2.78;;
79013;SDS011;68419;44.714;37.756;2023-03-23T01:20:11;3.28;;;2.60;;
79013;SDS011;68419;44.714;37.756;2023-03-23T01:21:18;3.40;;;2.50;;
79013;SDS011;68419;44.714;37.756;2023-03-23T01:22:23;3.65;;;2.90;;
79013;SDS011;68419;44.714;37.756;2023-03-23T01:23:25;4.22;;;2.90;;
79013;SDS011;68419;44.714;37.756;2023-03-23T01:24:27;3.17;;;2.60;;
79013;SDS011;68419;44.714;37.756;2023-03-23T01:25:32;4.88;;;2.80;;
79013;SDS011;68419;44.714;37.756;2023-03-23T01:26:36;3.67;;;2.95;;
79013;SDS011;68419;44.714;37.756;2023-03-23T01:27:38;5.35;;;3.33;;
79013;SDS011;68419;44.714;37.756;2023-03-23T01:28:40;3.58;;;2.78;;
79013;SDS011;68419;44.714;37.756;2023-03-23T01:29:42;4.38;;;2.80;;
79013;SDS011;68419;44.714;37.756;2023-03-23T01:30:44;4.45;;;2.88;;
79013;SDS011;68419;44.714;37.756;2023-03-23T01:31:46;4.95;;;2.97;;
79013;SDS011;68419;44.714;37.756;2023-03-23T01:32:47;4.55;;;2.92;;
79013;SDS011;68419;44.714;37.756;2023-03-23T01:33:49;4.07;;;2.90;;
79013;SDS011;68419;44.714;37.756;2023-03-23T01:34:52;4.93;;;3.35;;
79013;SDS011;68419;44.714;37.756;2023-03-23T01:35:54;4.43;;;3.38;;
79013;SDS011;68419;44.714;37.756;2023-03-23T01:36:56;4.38;;;2.72;;
79013;SDS011;68419;44.714;37.756;2023-03-23T01:37:58;4.13;;;2.75;;
79013;SDS011;68419;44.714;37.756;2023-03-23T01:39:00;4.13;;;2.95;;
79013;SDS011;68419;44.714;37.756;2023-03-23T01:40:05;4.15;;;2.78;;
79013;SDS011;68419;44.714;37.756;2023-03-23T01:41:08;3.90;;;3.00;;
79013;SDS011;68419;44.714;37.756;2023-03-23T01:42:10;3.67;;;2.72;;
79013;SDS011;68419;44.714;37.756;2023-03-23T01:43:13;3.95;;;3.05;;
79013;SDS011;68419;44.714;37.756;2023-03-23T01:45:27;4.22;;;3.15;;
79013;SDS011;68419;44.714;37.756;2023-03-23T01:46:33;4.20;;;3.00;;
79013;SDS011;68419;44.714;37.756;2023-03-23T01:47:35;4.32;;;3.47;;
79013;SDS011;68419;44.714;37.756;2023-03-23T01:48:37;4.72;;;3.30;;
79013;SDS011;68419;44.714;37.756;2023-03-23T01:49:41;3.72;;;2.85;;
79013;SDS011;68419;44.714;37.756;2023-03-23T01:51:27;4.22;;;3.10;;
79013;SDS011;68419;44.714;37.756;2023-03-23T01:52:17;3.90;;;3.10;;
79013;SDS011;68419;44.714;37.756;2023-03-23T01:53:29;4.97;;;3.40;;
79013;SDS011;68419;44.714;37.756;2023-03-23T01:54:35;4.82;;;3.00;;
79013;SDS011;68419;44.714;37.756;2023-03-23T01:55:40;4.05;;;3.10;;
79013;SDS011;68419;44.714;37.756;2023-03-23T01:57:00;4.40;;;3.03;;
79013;SDS011;68419;44.714;37.756;2023-03-23T01:58:09;4.20;;;3.33;;
79013;SDS011;68419;44.714;37.756;2023-03-23T01:59:12;4.07;;;3.10;;
79013;SDS011;68419;44.714;37.756;2023-03-23T02:00:19;4.35;;;2.90;;
79013;SDS011;68419;44.714;37.756;2023-03-23T02:01:29;4.03;;;2.90;;
79013;SDS011;68419;44.714;37.756;2023-03-23T02:02:31;3.85;;;2.95;;
79013;SDS011;68419;44.714;37.756;2023-03-23T02:03:35;3.97;;;3.05;;
79013;SDS011;68419;44.714;37.756;2023-03-23T02:04:39;4.78;;;3.40;;
79013;SDS011;68419;44.714;37.756;2023-03-23T02:05:43;4.13;;;3.22;;
79013;SDS011;68419;44.714;37.756;2023-03-23T02:06:53;4.55;;;3.05;;
79013;SDS011;68419;44.714;37.756;2023-03-23T02:07:59;3.67;;;2.65;;
79013;SDS011;68419;44.714;37.756;2023-03-23T02:09:07;4.45;;;3.50;;
79013;SDS011;68419;44.714;37.756;2023-03-23T02:10:09;5.50;;;3.58;;
79013;SDS011;68419;44.714;37.756;2023-03-23T02:11:12;6.90;;;3.65;;
79013;SDS011;68419;44.714;37.756;2023-03-23T02:12:18;3.72;;;3.20;;
79013;SDS011;68419;44.714;37.756;2023-03-23T02:13:22;4.15;;;3.13;;
79013;SDS011;68419;44.714;37.756;2023-03-23T02:14:24;5.43;;;3.28;;
79013;SDS011;68419;44.714;37.756;2023-03-23T02:15:39;4.43;;;3.67;;
79013;SDS011;68419;44.714;37.756;2023-03-23T02:16:50;4.22;;;3.17;;
79013;SDS011;68419;44.714;37.756;2023-03-23T02:21:15;4.03;;;3.20;;
79013;SDS011;68419;44.714;37.756;2023-03-23T02:27:00;4.43;;;2.88;;
79013;SDS011;68419;44.714;37.756;2023-03-23T02:30:56;4.22;;;3.25;;
79013;SDS011;68419;44.714;37.756;2023-03-23T02:35:05;4.57;;;3.17;;
79013;SDS011;68419;44.714;37.756;2023-03-23T02:38:35;3.50;;;2.88;;
79013;SDS011;68419;44.714;37.756;2023-03-23T02:39:45;4.82;;;3.30;;
79013;SDS011;68419;44.714;37.756;2023-03-23T02:40:52;5.00;;;3.17;;
79013;SDS011;68419;44.714;37.756;2023-03-23T02:42:02;5.07;;;3.70;;
79013;SDS011;68419;44.714;37.756;2023-03-23T02:43:12;3.80;;;3.10;;
79013;SDS011;68419;44.714;37.756;2023-03-23T02:44:16;4.00;;;3.50;;
79013;SDS011;68419;44.714;37.756;2023-03-23T02:45:19;3.72;;;3.20;;
79013;SDS011;68419;44.714;37.756;2023-03-23T02:46:23;3.70;;;3.13;;
79013;SDS011;68419;44.714;37.756;2023-03-23T02:48:29;3.85;;;3.33;;
79013;SDS011;68419;44.714;37.756;2023-03-23T02:49:32;3.25;;;2.90;;
79013;SDS011;68419;44.714;37.756;2023-03-23T02:50:37;6.28;;;3.90;;
79013;SDS011;68419;44.714;37.756;2023-03-23T02:51:41;5.65;;;3.33;;
79013;SDS011;68419;44.714;37.756;2023-03-23T02:52:45;4.45;;;3.50;;
79013;SDS011;68419;44.714;37.756;2023-03-23T02:53:50;3.55;;;3.10;;
79013;SDS011;68419;44.714;37.756;2023-03-23T02:57:01;3.95;;;3.00;;
79013;SDS011;68419;44.714;37.756;2023-03-23T02:58:05;4.07;;;3.53;;
79013;SDS011;68419;44.714;37.756;2023-03-23T02:59:07;4.40;;;3.10;;
79013;SDS011;68419;44.714;37.756;2023-03-23T03:00:13;5.68;;;3.50;;
79013;SDS011;68419;44.714;37.756;2023-03-23T03:02:31;4.80;;;3.40;;
79013;SDS011;68419;44.714;37.756;2023-03-23T03:04:39;4.57;;;3.60;;
79013;SDS011;68419;44.714;37.756;2023-03-23T03:05:53;4.72;;;3.47;;
79013;SDS011;68419;44.714;37.756;2023-03-23T03:07:14;5.10;;;3.80;;
79013;SDS011;68419;44.714;37.756;2023-03-23T03:08:24;4.60;;;3.75;;
79013;SDS011;68419;44.714;37.756;2023-03-23T03:13:48;5.55;;;3.67;;
79013;SDS011;68419;44.714;37.756;2023-03-23T03:15:40;4.45;;;3.65;;
79013;SDS011;68419;44.714;37.756;2023-03-23T03:17:45;4.82;;;4.05;;
79013;SDS011;68419;44.714;37.756;2023-03-23T03:20:17;4.10;;;3.40;;
79013;SDS011;68419;44.714;37.756;2023-03-23T03:21:20;4.97;;;3.85;;
79013;SDS011;68419;44.714;37.756;2023-03-23T03:22:28;4.00;;;3.60;;
79013;SDS011;68419;44.714;37.756;2023-03-23T03:23:31;4.18;;;3.70;;
79013;SDS011;68419;44.714;37.756;2023-03-23T03:24:36;4.43;;;3.88;;
79013;SDS011;68419;44.714;37.756;2023-03-23T03:25:41;5.22;;;3.75;;
79013;SDS011;68419;44.714;37.756;2023-03-23T03:26:55;5.30;;;3.30;;
79013;SDS011;68419;44.714;37.756;2023-03-23T03:28:09;4.20;;;3.80;;
79013;SDS011;68419;44.714;37.756;2023-03-23T03:29:18;4.85;;;3.90;;
79013;SDS011;68419;44.714;37.756;2023-03-23T03:30:29;4.93;;;3.67;;
79013;SDS011;68419;44.714;37.756;2023-03-23T03:31:36;5.00;;;3.92;;
79013;SDS011;68419;44.714;37.756;2023-03-23T03:32:42;4.95;;;3.90;;
79013;SDS011;68419;44.714;37.756;2023-03-23T03:33:48;4.65;;;3.15;;
79013;SDS011;68419;44.714;37.756;2023-03-23T03:34:50;4.90;;;3.53;;
79013;SDS011;68419;44.714;37.756;2023-03-23T03:36:56;4.95;;;3.78;;
79013;SDS011;68419;44.714;37.756;2023-03-23T03:38:04;6.35;;;3.35;;
79013;SDS011;68419;44.714;37.756;2023-03-23T03:39:09;6.45;;;3.83;;
79013;SDS011;68419;44.714;37.756;2023-03-23T03:40:13;5.82;;;3.90;;
79013;SDS011;68419;44.714;37.756;2023-03-23T03:41:18;5.15;;;3.50;;
79013;SDS011;68419;44.714;37.756;2023-03-23T03:42:21;7.32;;;4.15;;
79013;SDS011;68419;44.714;37.756;2023-03-23T03:43:25;4.53;;;3.70;;
79013;SDS011;68419;44.714;37.756;2023-03-23T03:44:27;6.15;;;3.85;;
79013;SDS011;68419;44.714;37.756;2023-03-23T03:45:33;5.50;;;3.88;;
79013;SDS011;68419;44.714;37.756;2023-03-23T03:46:35;4.13;;;3.42;;
79013;SDS011;68419;44.714;37.756;2023-03-23T03:47:37;6.07;;;3.83;;
79013;SDS011;68419;44.714;37.756;2023-03-23T03:48:39;3.78;;;3.30;;
79013;SDS011;68419;44.714;37.756;2023-03-23T03:49:41;5.88;;;3.67;;
79013;SDS011;68419;44.714;37.756;2023-03-23T03:50:42;4.80;;;3.95;;
79013;SDS011;68419;44.714;37.756;2023-03-23T03:51:44;4.13;;;3.72;;
79013;SDS011;68419;44.714;37.756;2023-03-23T03:52:53;5.40;;;3.65;;
79013;SDS011;68419;44.714;37.756;2023-03-23T03:53:54;5.10;;;3.70;;
79013;SDS011;68419;44.714;37.756;2023-03-23T03:54:57;5.13;;;3.78;;
79013;SDS011;68419;44.714;37.756;2023-03-23T03:55:59;5.35;;;3.58;;
79013;SDS011;68419;44.714;37.756;2023-03-23T03:57:09;6.38;;;4.50;;
79013;SDS011;68419;44.714;37.756;2023-03-23T03:58:19;4.53;;;3.63;;
79013;SDS011;68419;44.714;37.756;2023-03-23T03:59:46;5.63;;;4.38;;
79013;SDS011;68419;44.714;37.756;2023-03-23T04:00:54;5.53;;;4.28;;
79013;SDS011;68419;44.714;37.756;2023-03-23T04:02:01;5.03;;;4.05;;
79013;SDS011;68419;44.714;37.756;2023-03-23T04:03:03;4.30;;;3.85;;
79013;SDS011;68419;44.714;37.756;2023-03-23T04:04:19;5.88;;;3.40;;
79013;SDS011;68419;44.714;37.756;2023-03-23T04:05:23;4.38;;;3.58;;
79013;SDS011;68419;44.714;37.756;2023-03-23T04:06:25;4.10;;;3.60;;
79013;SDS011;68419;44.714;37.756;2023-03-23T04:07:29;5.63;;;3.83;;
79013;SDS011;68419;44.714;37.756;2023-03-23T04:08:31;4.70;;;3.38;;
79013;SDS011;68419;44.714;37.756;2023-03-23T04:09:33;5.85;;;3.85;;
79013;SDS011;68419;44.714;37.756;2023-03-23T04:10:35;3.80;;;3.25;;
79013;SDS011;68419;44.714;37.756;2023-03-23T04:11:37;5.38;;;3.63;;
79013;SDS011;68419;44.714;37.756;2023-03-23T04:13:02;4.50;;;3.97;;
79013;SDS011;68419;44.714;37.756;2023-03-23T04:14:05;4.57;;;3.58;;
79013;SDS011;68419;44.714;37.756;2023-03-23T04:15:19;4.45;;;3.63;;
79013;SDS011;68419;44.714;37.756;2023-03-23T04:16:22;8.43;;;3.80;;
79013;SDS011;68419;44.714;37.756;2023-03-23T04:17:23;5.60;;;3.88;;
79013;SDS011;68419;44.714;37.756;2023-03-23T04:18:28;8.70;;;4.38;;
79013;SDS011;68419;44.714;37.756;2023-03-23T04:19:30;7.10;;;4.07;;
79013;SDS011;68419;44.714;37.756;2023-03-23T04:20:35;5.78;;;3.70;;
79013;SDS011;68419;44.714;37.756;2023-03-23T04:23:47;5.43;;;4.00;;
79013;SDS011;68419;44.714;37.756;2023-03-23T04:24:50;6.57;;;3.83;;
79013;SDS011;68419;44.714;37.756;2023-03-23T04:25:53;5.32;;;3.92;;
79013;SDS011;68419;44.714;37.756;2023-03-23T04:26:59;7.13;;;4.13;;
79013;SDS011;68419;44.714;37.756;2023-03-23T04:28:02;6.43;;;3.80;;
79013;SDS011;68419;44.714;37.756;2023-03-23T04:29:09;4.72;;;3.70;;
79013;SDS011;68419;44.714;37.756;2023-03-23T04:30:32;6.75;;;3.50;;
79013;SDS011;68419;44.714;37.756;2023-03-23T04:31:40;5.00;;;3.85;;
79013;SDS011;68419;44.714;37.756;2023-03-23T04:33:00;5.45;;;3.53;;
79013;SDS011;68419;44.714;37.756;2023-03-23T04:34:03;9.50;;;3.80;;
79013;SDS011;68419;44.714;37.756;2023-03-23T04:35:12;5.82;;;3.85;;
79013;SDS011;68419;44.714;37.756;2023-03-23T04:36:32;5.13;;;4.13;;
79013;SDS011;68419;44.714;37.756;2023-03-23T04:37:39;5.45;;;4.45;;
79013;SDS011;68419;44.714;37.756;2023-03-23T04:38:42;7.75;;;3.80;;
79013;SDS011;68419;44.714;37.756;2023-03-23T04:39:54;6.68;;;4.20;;
79013;SDS011;68419;44.714;37.756;2023-03-23T04:41:02;5.03;;;3.50;;
79013;SDS011;68419;44.714;37.756;2023-03-23T04:42:18;5.85;;;3.70;;
79013;SDS011;68419;44.714;37.756;2023-03-23T04:43:48;6.72;;;4.00;;
79013;SDS011;68419;44.714;37.756;2023-03-23T04:45:03;6.10;;;4.20;;
79013;SDS011;68419;44.714;37.756;2023-03-23T04:46:11;6.50;;;3.72;;
79013;SDS011;68419;44.714;37.756;2023-03-23T04:47:13;6.38;;;3.40;;
79013;SDS011;68419;44.714;37.756;2023-03-23T04:48:26;7.97;;;3.83;;
79013;SDS011;68419;44.714;37.756;2023-03-23T04:49:42;4.95;;;3.53;;
79013;SDS011;68419;44.714;37.756;2023-03-23T04:51:06;4.22;;;3.63;;
79013;SDS011;68419;44.714;37.756;2023-03-23T04:52:08;5.32;;;3.35;;
79013;SDS011;68419;44.714;37.756;2023-03-23T04:53:18;8.93;;;3.83;;
79013;SDS011;68419;44.714;37.756;2023-03-23T04:54:21;5.65;;;4.18;;
79013;SDS011;68419;44.714;37.756;2023-03-23T04:55:26;8.27;;;4.10;;
79013;SDS011;68419;44.714;37.756;2023-03-23T04:56:32;8.43;;;3.75;;
79013;SDS011;68419;44.714;37.756;2023-03-23T04:57:42;6.28;;;3.85;;
79013;SDS011;68419;44.714;37.756;2023-03-23T04:59:06;6.97;;;4.00;;
79013;SDS011;68419;44.714;37.756;2023-03-23T05:00:13;4.10;;;3.70;;
79013;SDS011;68419;44.714;37.756;2023-03-23T05:01:24;5.45;;;3.50;;
79013;SDS011;68419;44.714;37.756;2023-03-23T05:02:45;5.13;;;3.53;;
79013;SDS011;68419;44.714;37.756;2023-03-23T05:03:48;5.93;;;3.40;;
79013;SDS011;68419;44.714;37.756;2023-03-23T05:04:50;5.57;;;3.83;;
79013;SDS011;68419;44.714;37.756;2023-03-23T05:06:00;5.28;;;3.55;;
79013;SDS011;68419;44.714;37.756;2023-03-23T05:07:04;6.13;;;3.95;;
79013;SDS011;68419;44.714;37.756;2023-03-23T05:08:08;7.13;;;3.53;;
79013;SDS011;68419;44.714;37.756;2023-03-23T05:09:14;4.03;;;3.28;;
79013;SDS011;68419;44.714;37.756;2023-03-23T05:10:18;4.45;;;3.45;;
79013;SDS011;68419;44.714;37.756;2023-03-23T05:11:20;4.63;;;3.47;;
79013;SDS011;68419;44.714;37.756;2023-03-23T05:12:22;5.18;;;3.65;;
79013;SDS011;68419;44.714;37.756;2023-03-23T05:13:36;4.95;;;3.17;;
79013;SDS011;68419;44.714;37.756;2023-03-23T05:14:40;8.55;;;4.07;;
79013;SDS011;68419;44.714;37.756;2023-03-23T05:15:45;4.32;;;3.33;;
79013;SDS011;68419;44.714;37.756;2023-03-23T05:16:46;6.15;;;3.78;;
79013;SDS011;68419;44.714;37.756;2023-03-23T05:17:51;5.75;;;3.72;;
79013;SDS011;68419;44.714;37.756;2023-03-23T05:18:55;5.32;;;3.63;;
79013;SDS011;68419;44.714;37.756;2023-03-23T05:19:59;5.78;;;3.50;;
79013;SDS011;68419;44.714;37.756;2023-03-23T05:21:13;4.55;;;3.53;;
79013;SDS011;68419;44.714;37.756;2023-03-23T05:22:19;4.53;;;3.00;;
79013;SDS011;68419;44.714;37.756;2023-03-23T05:23:23;5.47;;;3.72;;
79013;SDS011;68419;44.714;37.756;2023-03-23T05:24:30;5.05;;;3.95;;
79013;SDS011;68419;44.714;37.756;2023-03-23T05:25:37;4.45;;;3.47;;
79013;SDS011;68419;44.714;37.756;2023-03-23T05:26:48;4.60;;;3.45;;
79013;SDS011;68419;44.714;37.756;2023-03-23T05:27:57;4.85;;;3.47;;
79013;SDS011;68419;44.714;37.756;2023-03-23T05:29:23;5.00;;;3.50;;
79013;SDS011;68419;44.714;37.756;2023-03-23T05:30:34;5.07;;;3.50;;
79013;SDS011;68419;44.714;37.756;2023-03-23T05:31:37;5.43;;;3.20;;
79013;SDS011;68419;44.714;37.756;2023-03-23T05:32:38;4.30;;;3.35;;
79013;SDS011;68419;44.714;37.756;2023-03-23T05:33:57;3.92;;;3.30;;
79013;SDS011;68419;44.714;37.756;2023-03-23T05:35:07;6.50;;;3.80;;
79013;SDS011;68419;44.714;37.756;2023-03-23T05:36:08;4.32;;;3.17;;
79013;SDS011;68419;44.714;37.756;2023-03-23T05:37:40;3.72;;;3.00;;
79013;SDS011;68419;44.714;37.756;2023-03-23T05:38:44;4.85;;;3.03;;
79013;SDS011;68419;44.714;37.756;2023-03-23T05:39:51;3.45;;;3.15;;
79013;SDS011;68419;44.714;37.756;2023-03-23T05:40:58;4.25;;;3.03;;
79013;SDS011;68419;44.714;37.756;2023-03-23T05:42:12;4.80;;;3.50;;
79013;SDS011;68419;44.714;37.756;2023-03-23T05:43:28;5.38;;;2.90;;
79013;SDS011;68419;44.714;37.756;2023-03-23T05:44:49;4.65;;;3.42;;
79013;SDS011;68419;44.714;37.756;2023-03-23T05:45:51;5.75;;;3.30;;
79013;SDS011;68419;44.714;37.756;2023-03-23T05:46:53;4.22;;;3.42;;
79013;SDS011;68419;44.714;37.756;2023-03-23T05:47:54;5.13;;;3.35;;
79013;SDS011;68419;44.714;37.756;2023-03-23T05:48:59;4.30;;;3.25;;
79013;SDS011;68419;44.714;37.756;2023-03-23T05:50:08;3.80;;;3.17;;
79013;SDS011;68419;44.714;37.756;2023-03-23T05:51:10;4.95;;;3.20;;
79013;SDS011;68419;44.714;37.756;2023-03-23T05:52:16;4.22;;;3.22;;
79013;SDS011;68419;44.714;37.756;2023-03-23T05:53:18;4.72;;;3.08;;
79013;SDS011;68419;44.714;37.756;2023-03-23T05:54:20;4.35;;;3.35;;
79013;SDS011;68419;44.714;37.756;2023-03-23T05:55:23;6.13;;;3.20;;
79013;SDS011;68419;44.714;37.756;2023-03-23T05:56:34;3.75;;;2.97;;
79013;SDS011;68419;44.714;37.756;2023-03-23T05:57:52;4.40;;;3.25;;
79013;SDS011;68419;44.714;37.756;2023-03-23T05:59:17;6.32;;;3.33;;
79013;SDS011;68419;44.714;37.756;2023-03-23T06:00:21;4.93;;;3.30;;
79013;SDS011;68419;44.714;37.756;2023-03-23T06:01:31;4.40;;;2.88;;
79013;SDS011;68419;44.714;37.756;2023-03-23T06:02:33;5.50;;;3.72;;
79013;SDS011;68419;44.714;37.756;2023-03-23T06:03:35;4.13;;;3.50;;
79013;SDS011;68419;44.714;37.756;2023-03-23T06:04:43;4.07;;;3.00;;
79013;SDS011;68419;44.714;37.756;2023-03-23T06:05:57;6.80;;;3.30;;
79013;SDS011;68419;44.714;37.756;2023-03-23T06:07:07;3.42;;;2.88;;
79013;SDS011;68419;44.714;37.756;2023-03-23T06:08:14;3.80;;;3.00;;
79013;SDS011;68419;44.714;37.756;2023-03-23T06:09:16;4.40;;;3.28;;
79013;SDS011;68419;44.714;37.756;2023-03-23T06:10:41;4.10;;;3.28;;
79013;SDS011;68419;44.714;37.756;2023-03-23T06:11:43;3.45;;;2.92;;
79013;SDS011;68419;44.714;37.756;2023-03-23T06:13:23;3.42;;;2.80;;
79013;SDS011;68419;44.714;37.756;2023-03-23T06:14:28;4.20;;;3.30;;
79013;SDS011;68419;44.714;37.756;2023-03-23T06:15:30;4.25;;;3.28;;
79013;SDS011;68419;44.714;37.756;2023-03-23T06:16:35;3.63;;;3.05;;
79013;SDS011;68419;44.714;37.756;2023-03-23T06:17:43;4.95;;;2.83;;
79013;SDS011;68419;44.714;37.756;2023-03-23T06:18:44;4.40;;;3.30;;
79013;SDS011;68419;44.714;37.756;2023-03-23T06:20:13;5.03;;;3.08;;
79013;SDS011;68419;44.714;37.756;2023-03-23T06:21:16;5.45;;;3.42;;
79013;SDS011;68419;44.714;37.756;2023-03-23T06:22:31;3.58;;;3.03;;
79013;SDS011;68419;44.714;37.756;2023-03-23T06:23:41;4.10;;;3.20;;
79013;SDS011;68419;44.714;37.756;2023-03-23T06:24:43;4.70;;;3.28;;
79013;SDS011;68419;44.714;37.756;2023-03-23T06:25:47;3.80;;;3.08;;
79013;SDS011;68419;44.714;37.756;2023-03-23T06:26:49;4.47;;;2.90;;
79013;SDS011;68419;44.714;37.756;2023-03-23T06:27:54;4.63;;;3.30;;
79013;SDS011;68419;44.714;37.756;2023-03-23T06:28:56;4.63;;;3.05;;
79013;SDS011;68419;44.714;37.756;2023-03-23T06:29:58;4.82;;;3.40;;
79013;SDS011;68419;44.714;37.756;2023-03-23T06:31:04;3.72;;;3.00;;
79013;SDS011;68419;44.714;37.756;2023-03-23T06:32:09;3.35;;;2.80;;
79013;SDS011;68419;44.714;37.756;2023-03-23T06:33:14;5.28;;;3.35;;
79013;SDS011;68419;44.714;37.756;2023-03-23T06:34:51;4.15;;;3.33;;
79013;SDS011;68419;44.714;37.756;2023-03-23T06:36:12;4.03;;;3.22;;
79013;SDS011;68419;44.714;37.756;2023-03-23T06:37:23;3.50;;;3.08;;
79013;SDS011;68419;44.714;37.756;2023-03-23T06:38:54;4.53;;;3.00;;
79013;SDS011;68419;44.714;37.756;2023-03-23T06:40:05;5.13;;;3.20;;
79013;SDS011;68419;44.714;37.756;2023-03-23T06:41:13;4.32;;;3.65;;
79013;SDS011;68419;44.714;37.756;2023-03-23T06:42:14;3.58;;;2.97;;
79013;SDS011;68419;44.714;37.756;2023-03-23T06:43:22;4.22;;;3.20;;
79013;SDS011;68419;44.714;37.756;2023-03-23T06:44:30;3.83;;;3.05;;
79013;SDS011;68419;44.714;37.756;2023-03-23T06:45:32;4.10;;;3.15;;
79013;SDS011;68419;44.714;37.756;2023-03-23T06:46:56;3.50;;;2.90;;
79013;SDS011;68419;44.714;37.756;2023-03-23T06:48:05;5.05;;;3.05;;
79013;SDS011;68419;44.714;37.756;2023-03-23T06:49:08;4.07;;;3.08;;
79013;SDS011;68419;44.714;37.756;2023-03-23T06:50:19;3.67;;;3.05;;
79013;SDS011;68419;44.714;37.756;2023-03-23T06:51:21;4.65;;;3.10;;
79013;SDS011;68419;44.714;37.756;2023-03-23T06:52:26;3.17;;;2.72;;
79013;SDS011;68419;44.714;37.756;2023-03-23T06:53:28;4.13;;;3.13;;
79013;SDS011;68419;44.714;37.756;2023-03-23T06:54:32;3.53;;;2.55;;
79013;SDS011;68419;44.714;37.756;2023-03-23T06:55:37;3.97;;;2.90;;
79013;SDS011;68419;44.714;37.756;2023-03-23T06:56:39;4.10;;;3.00;;
79013;SDS011;68419;44.714;37.756;2023-03-23T06:57:43;4.15;;;2.90;;
79013;SDS011;68419;44.714;37.756;2023-03-23T06:58:47;3.92;;;3.20;;
79013;SDS011;68419;44.714;37.756;2023-03-23T06:59:49;4.03;;;2.83;;
79013;SDS011;68419;44.714;37.756;2023-03-23T07:00:54;4.38;;;2.97;;
79013;SDS011;68419;44.714;37.756;2023-03-23T07:02:10;3.25;;;2.88;;
79013;SDS011;68419;44.714;37.756;2023-03-23T07:03:13;4.50;;;3.40;;
79013;SDS011;68419;44.714;37.756;2023-03-23T07:04:15;4.07;;;3.10;;
79013;SDS011;68419;44.714;37.756;2023-03-23T07:05:35;4.97;;;2.90;;
79013;SDS011;68419;44.714;37.756;2023-03-23T07:06:37;3.58;;;3.20;;
79013;SDS011;68419;44.714;37.756;2023-03-23T07:07:42;3.85;;;3.15;;